Time;durP1;ratioP1;P1;durP2;ratioP2;P2;SDS_P1;SDS_P2;PMS_P1;PMS_P2;Temp;Humidity;BMP_temperature;BMP_pressure;BME280_temperature;BME280_humidity;BME280_pressure;Samples;Min_cycle;Max_cycle;Signal;HPM_P1;HPM_P2
2021/12/18 00:01:47;;;;;;;13.45;2.03;;;;;;;;;;5085237;28;20438;-61
2021/12/18 00:04:13;;;;;;;14.25;1.67;;;;;;;;;;5084592;28;20043;-61
2021/12/18 00:06:39;;;;;;;9.23;1.70;;;;;;;;;;5084997;28;20191;-61
2021/12/18 00:09:05;;;;;;;15.15;1.80;;;;;;;;;;5082632;28;20071;-61
2021/12/18 00:11:31;;;;;;;8.65;1.92;;;;;;;;;;5082477;28;20405;-61
2021/12/18 00:13:58;;;;;;;18.27;1.95;;;;;;;;;;5077983;28;20132;-61
2021/12/18 00:16:24;;;;;;;14.93;1.75;;;;;;;;;;5082101;28;20040;-61
2021/12/18 00:18:52;;;;;;;16.55;1.95;;;;;;;;;;5083735;28;20475;-61
2021/12/18 00:21:19;;;;;;;9.50;1.77;;;;;;;;;;5081619;28;20438;-61
2021/12/18 00:23:46;;;;;;;13.00;2.00;;;;;;;;;;5083586;28;20098;-61
2021/12/18 00:26:12;;;;;;;12.90;1.75;;;;;;;;;;5080570;28;20763;-61
2021/12/18 00:28:38;;;;;;;17.80;1.75;;;;;;;;;;5086576;28;20565;-61
2021/12/18 00:31:04;;;;;;;15.00;2.17;;;;;;;;;;5082215;28;20028;-61
2021/12/18 00:33:31;;;;;;;19.73;1.80;;;;;;;;;;5087474;28;20120;-61
2021/12/18 00:35:57;;;;;;;15.23;1.50;;;;;;;;;;5090642;28;20106;-61
2021/12/18 00:38:28;;;;;;;8.35;1.98;;;;;;;;;;5099108;28;20067;-61
2021/12/18 00:41:12;;;;;;;8.73;2.25;;;;;;;;;;5089141;28;20355;-61
2021/12/18 00:44:01;;;;;;;10.63;2.20;;;;;;;;;;5078802;28;20048;-61
2021/12/18 00:46:25;;;;;;;14.88;2.70;;;;;;;;;;5085234;28;20116;-61
2021/12/18 00:48:51;;;;;;;17.52;2.58;;;;;;;;;;5079823;28;20108;-60
2021/12/18 00:51:18;;;;;;;11.63;1.83;;;;;;;;;;5082770;28;20114;-61
2021/12/18 00:53:44;;;;;;;9.30;1.80;;;;;;;;;;5090002;28;20097;-61
2021/12/18 00:56:10;;;;;;;12.80;2.15;;;;;;;;;;5085916;28;20108;-61
2021/12/18 00:58:36;;;;;;;13.68;1.98;;;;;;;;;;5083750;28;20055;-61
2021/12/18 01:01:07;;;;;;;14.18;2.80;;;;;;;;;;5085607;28;20398;-61
2021/12/18 01:03:35;;;;;;;17.15;2.28;;;;;;;;;;5088258;28;20044;-61
2021/12/18 01:06:01;;;;;;;12.15;2.00;;;;;;;;;;5084445;28;20506;-61
2021/12/18 01:08:27;;;;;;;20.92;2.28;;;;;;;;;;5083820;28;20044;-61
2021/12/18 01:11:15;;;;;;;11.07;1.92;;;;;;;;;;5085326;28;20053;-61
2021/12/18 01:14:04;;;;;;;8.00;1.83;;;;;;;;;;5083508;28;20199;-61
2021/12/18 01:16:43;;;;;;;11.65;2.55;;;;;;;;;;5089500;28;20036;-61
2021/12/18 01:24:39;;;;;;;16.55;2.50;;;;;;;;;;5091275;28;20388;-61
2021/12/18 01:27:05;;;;;;;12.90;2.25;;;;;;;;;;5082724;28;20480;-61
2021/12/18 01:29:31;;;;;;;14.40;2.15;;;;;;;;;;5086007;28;20040;-61
2021/12/18 01:31:57;;;;;;;21.20;2.10;;;;;;;;;;5085845;28;20101;-61
2021/12/18 01:34:23;;;;;;;18.30;2.42;;;;;;;;;;5087649;28;20048;-60
2021/12/18 01:36:50;;;;;;;23.42;2.22;;;;;;;;;;5082703;28;20138;-61
2021/12/18 01:39:16;;;;;;;28.38;2.72;;;;;;;;;;5082196;28;20044;-61
2021/12/18 01:42:15;;;;;;;15.73;2.90;;;;;;;;;;5089244;28;20467;-61
2021/12/18 01:45:00;;;;;;;14.05;3.25;;;;;;;;;;5087195;28;20044;-61
2021/12/18 01:52:45;;;;;;;12.00;3.83;;;;;;;;;;5088879;28;20041;-61
2021/12/18 01:55:12;;;;;;;13.82;3.33;;;;;;;;;;5084418;28;20056;-61
2021/12/18 01:57:38;;;;;;;14.02;3.25;;;;;;;;;;5079407;28;20112;-61
2021/12/18 02:00:15;;;;;;;18.67;3.15;;;;;;;;;;5088753;28;20058;-61
2021/12/18 02:02:41;;;;;;;11.82;2.70;;;;;;;;;;5086447;28;20049;-61
2021/12/18 02:05:08;;;;;;;16.27;3.25;;;;;;;;;;5091223;28;20120;-61
2021/12/18 02:07:34;;;;;;;9.52;3.38;;;;;;;;;;5090460;28;20517;-61
2021/12/18 02:10:04;;;;;;;15.15;3.95;;;;;;;;;;5085391;28;20061;-61
2021/12/18 02:12:47;;;;;;;12.65;4.05;;;;;;;;;;5088394;28;20040;-61
2021/12/18 02:20:45;;;;;;;12.18;3.80;;;;;;;;;;5086805;28;20052;-61
2021/12/18 02:23:12;;;;;;;12.30;3.70;;;;;;;;;;5082936;28;20043;-61
2021/12/18 02:25:38;;;;;;;14.15;3.40;;;;;;;;;;5086315;28;20097;-61
2021/12/18 02:28:10;;;;;;;9.95;3.15;;;;;;;;;;5084056;28;20043;-61
2021/12/18 02:30:36;;;;;;;11.07;3.28;;;;;;;;;;5090376;28;20044;-61
2021/12/18 02:33:02;;;;;;;9.38;3.50;;;;;;;;;;5088251;28;20039;-61
2021/12/18 02:35:29;;;;;;;15.07;3.90;;;;;;;;;;5079613;28;20051;-61
2021/12/18 02:38:12;;;;;;;18.67;4.30;;;;;;;;;;5085667;28;20470;-61
2021/12/18 02:43:11;;;;;;;25.40;5.45;;;;;;;;;;5084377;28;20396;-61
2021/12/18 02:45:38;;;;;;;29.30;6.45;;;;;;;;;;5080920;28;20243;-61
2021/12/18 02:48:04;;;;;;;21.60;5.28;;;;;;;;;;5076406;28;20044;-61
2021/12/18 02:50:30;;;;;;;23.13;3.78;;;;;;;;;;5080893;28;20173;-61
2021/12/18 02:52:56;;;;;;;14.68;3.83;;;;;;;;;;5081082;28;20092;-61
2021/12/18 02:55:22;;;;;;;14.52;3.65;;;;;;;;;;5082619;28;20044;-61
2021/12/18 02:57:49;;;;;;;21.60;4.40;;;;;;;;;;5082624;28;20116;-61
2021/12/18 03:00:16;;;;;;;20.58;4.38;;;;;;;;;;5077676;28;20667;-61
2021/12/18 03:02:44;;;;;;;27.65;4.90;;;;;;;;;;5078326;28;20141;-61
2021/12/18 03:05:18;;;;;;;20.58;4.38;;;;;;;;;;5076695;28;20048;-61
2021/12/18 03:07:45;;;;;;;;;;;;;;;;;;5080816;28;20069;-61
2021/12/18 03:23:28;;;;;;;9.73;3.10;;;;;;;;;;5088386;28;20450;-61
2021/12/18 03:25:57;;;;;;;6.45;2.42;;;;;;;;;;5085901;28;20035;-61
2021/12/18 03:28:24;;;;;;;4.97;2.00;;;;;;;;;;5088239;28;20052;-61
2021/12/18 03:30:50;;;;;;;6.90;1.80;;;;;;;;;;5077364;28;20048;-61
2021/12/18 03:33:16;;;;;;;5.47;1.90;;;;;;;;;;5082902;28;20162;-61
2021/12/18 03:35:42;;;;;;;6.63;2.10;;;;;;;;;;5088864;28;20404;-61
2021/12/18 03:38:10;;;;;;;5.90;2.10;;;;;;;;;;5087009;28;20046;-61
2021/12/18 03:40:37;;;;;;;6.10;2.17;;;;;;;;;;5092690;28;20044;-61
2021/12/18 03:43:03;;;;;;;5.78;2.28;;;;;;;;;;5088057;28;20442;-61
2021/12/18 03:45:30;;;;;;;4.93;1.95;;;;;;;;;;5083547;28;20052;-61
2021/12/18 03:47:56;;;;;;;6.10;2.40;;;;;;;;;;5082935;28;20585;-61
2021/12/18 03:50:22;;;;;;;7.20;2.58;;;;;;;;;;5086005;28;20036;-61
2021/12/18 03:52:49;;;;;;;13.65;2.80;;;;;;;;;;5081245;28;20105;-61
2021/12/18 03:55:15;;;;;;;14.63;2.90;;;;;;;;;;5083762;28;20033;-61
2021/12/18 03:57:41;;;;;;;9.57;2.28;;;;;;;;;;5083355;28;20044;-61
2021/12/18 04:00:09;;;;;;;9.98;2.63;;;;;;;;;;5084671;28;20044;-61
2021/12/18 04:02:35;;;;;;;8.13;2.50;;;;;;;;;;5088107;28;20546;-61
2021/12/18 04:05:01;;;;;;;9.50;2.90;;;;;;;;;;5084729;28;20040;-61
2021/12/18 04:07:27;;;;;;;7.05;2.75;;;;;;;;;;5081054;28;20047;-61
2021/12/18 04:09:54;;;;;;;10.10;2.72;;;;;;;;;;5080037;28;20061;-61
2021/12/18 04:12:20;;;;;;;15.60;3.13;;;;;;;;;;5080785;28;20093;-61
2021/12/18 04:14:46;;;;;;;13.10;3.40;;;;;;;;;;5080276;28;20093;-61
2021/12/18 04:17:12;;;;;;;16.63;4.00;;;;;;;;;;5087551;28;20446;-61
2021/12/18 04:19:38;;;;;;;16.88;3.92;;;;;;;;;;5082250;28;20127;-61
2021/12/18 04:22:05;;;;;;;18.42;4.50;;;;;;;;;;5084517;28;20036;-61
2021/12/18 04:24:31;;;;;;;14.25;4.72;;;;;;;;;;5087789;28;20047;-61
2021/12/18 04:26:57;;;;;;;15.85;5.25;;;;;;;;;;5083725;28;20086;-61
2021/12/18 04:29:23;;;;;;;20.50;5.43;;;;;;;;;;5081751;28;20396;-61
2021/12/18 04:31:49;;;;;;;15.57;5.88;;;;;;;;;;5083066;28;20042;-61
2021/12/18 04:34:16;;;;;;;20.83;5.80;;;;;;;;;;5080926;28;20044;-61
2021/12/18 04:36:42;;;;;;;16.65;5.28;;;;;;;;;;5084558;28;20032;-61
2021/12/18 04:39:08;;;;;;;12.02;4.47;;;;;;;;;;5081994;28;20043;-61
2021/12/18 04:41:38;;;;;;;18.88;5.85;;;;;;;;;;5083447;28;20049;-61
2021/12/18 04:44:05;;;;;;;12.90;4.15;;;;;;;;;;5076845;28;20055;-61
2021/12/18 04:46:31;;;;;;;13.52;5.05;;;;;;;;;;5081359;28;20079;-61
2021/12/18 04:48:57;;;;;;;16.05;4.85;;;;;;;;;;5081647;28;20383;-61
2021/12/18 04:51:23;;;;;;;14.10;5.35;;;;;;;;;;5084909;28;20052;-61
2021/12/18 04:53:49;;;;;;;27.45;5.80;;;;;;;;;;5086730;28;20042;-61
2021/12/18 04:56:15;;;;;;;20.38;4.93;;;;;;;;;;5086682;28;20079;-61
2021/12/18 04:58:41;;;;;;;38.20;5.88;;;;;;;;;;5085603;28;20085;-61
2021/12/18 05:01:07;;;;;;;19.55;5.25;;;;;;;;;;5084897;28;20047;-61
2021/12/18 05:03:35;;;;;;;21.13;4.95;;;;;;;;;;5083202;28;20036;-61
2021/12/18 05:06:03;;;;;;;16.85;4.78;;;;;;;;;;5081866;28;20040;-60
2021/12/18 05:08:29;;;;;;;31.60;5.35;;;;;;;;;;5081494;28;20040;-61
2021/12/18 05:10:55;;;;;;;20.25;4.75;;;;;;;;;;5083925;28;20380;-61
2021/12/18 05:13:22;;;;;;;19.15;4.78;;;;;;;;;;5075256;28;20040;-61
2021/12/18 05:15:48;;;;;;;36.40;5.60;;;;;;;;;;5080896;28;20044;-60
2021/12/18 05:18:14;;;;;;;27.55;5.35;;;;;;;;;;5079415;28;20082;-61
2021/12/18 05:20:40;;;;;;;34.35;5.22;;;;;;;;;;5080910;28;20037;-61
2021/12/18 05:23:06;;;;;;;26.23;5.28;;;;;;;;;;5091282;28;20029;-61
2021/12/18 05:25:32;;;;;;;21.60;4.90;;;;;;;;;;5080373;28;20181;-61
2021/12/18 05:27:59;;;;;;;24.63;4.75;;;;;;;;;;5089973;28;20085;-61
2021/12/18 05:30:25;;;;;;;30.15;5.45;;;;;;;;;;5083585;28;20051;-60
2021/12/18 05:32:51;;;;;;;22.30;5.47;;;;;;;;;;5085826;28;20122;-61
2021/12/18 05:35:18;;;;;;;38.72;5.88;;;;;;;;;;5088097;28;20077;-61
2021/12/18 05:37:53;;;;;;;33.83;6.13;;;;;;;;;;5086684;28;20060;-61
2021/12/18 05:40:21;;;;;;;34.83;6.07;;;;;;;;;;5085091;28;20032;-61
2021/12/18 05:42:47;;;;;;;35.25;6.03;;;;;;;;;;5082421;28;20136;-61
2021/12/18 05:45:14;;;;;;;18.58;5.28;;;;;;;;;;5086783;28;20109;-61
2021/12/18 05:47:42;;;;;;;37.70;6.30;;;;;;;;;;5090057;28;20048;-61
2021/12/18 05:50:10;;;;;;;44.15;6.43;;;;;;;;;;5080871;28;20037;-60
2021/12/18 05:52:36;;;;;;;45.42;7.00;;;;;;;;;;5081378;28;20048;-61
2021/12/18 05:55:03;;;;;;;33.88;7.00;;;;;;;;;;5086238;28;20473;-61
2021/12/18 05:57:29;;;;;;;30.05;7.28;;;;;;;;;;5085631;28;20393;-61
2021/12/18 05:59:55;;;;;;;41.03;7.03;;;;;;;;;;5084874;28;20028;-61
2021/12/18 06:02:21;;;;;;;49.92;7.95;;;;;;;;;;5087779;28;20050;-61
2021/12/18 06:04:47;;;;;;;28.92;6.78;;;;;;;;;;5087820;28;20436;-61
2021/12/18 06:07:31;;;;;;;54.20;7.40;;;;;;;;;;5088412;28;20036;-61
2021/12/18 06:09:58;;;;;;;38.65;6.68;;;;;;;;;;5079965;28;20040;-60
2021/12/18 06:12:24;;;;;;;31.33;6.60;;;;;;;;;;5088693;28;20040;-61
2021/12/18 06:14:51;;;;;;;33.83;6.35;;;;;;;;;;5082827;28;20044;-61
2021/12/18 06:17:17;;;;;;;26.65;6.28;;;;;;;;;;5086782;28;20067;-61
2021/12/18 06:19:43;;;;;;;28.40;5.95;;;;;;;;;;5089565;28;20047;-61
2021/12/18 06:22:09;;;;;;;26.25;5.85;;;;;;;;;;5084597;28;20060;-61
2021/12/18 06:24:36;;;;;;;40.67;6.10;;;;;;;;;;5080620;28;20051;-61
2021/12/18 06:27:02;;;;;;;39.92;6.57;;;;;;;;;;5083965;28;20428;-61
2021/12/18 06:29:29;;;;;;;41.13;7.07;;;;;;;;;;5083441;28;20044;-61
2021/12/18 06:31:56;;;;;;;39.78;6.07;;;;;;;;;;5080673;28;20376;-61
2021/12/18 06:34:22;;;;;;;25.58;5.47;;;;;;;;;;5087558;28;20139;-61
2021/12/18 06:36:48;;;;;;;26.52;5.25;;;;;;;;;;5079861;28;20044;-61
2021/12/18 06:39:14;;;;;;;30.92;6.18;;;;;;;;;;5085585;28;20488;-61
2021/12/18 06:41:40;;;;;;;21.27;5.80;;;;;;;;;;5083950;28;20401;-60
2021/12/18 06:44:06;;;;;;;36.22;6.03;;;;;;;;;;5086303;28;20592;-61
2021/12/18 06:46:33;;;;;;;30.48;5.85;;;;;;;;;;5084006;28;20135;-61
2021/12/18 06:48:59;;;;;;;35.50;6.30;;;;;;;;;;5084142;28;20039;-60
2021/12/18 06:51:25;;;;;;;28.05;5.85;;;;;;;;;;5086724;28;20047;-61
2021/12/18 06:53:52;;;;;;;32.08;6.00;;;;;;;;;;5082452;28;20051;-61
2021/12/18 06:56:18;;;;;;;24.23;5.78;;;;;;;;;;5086982;28;20123;-61
2021/12/18 06:58:44;;;;;;;31.10;6.18;;;;;;;;;;5080213;28;20044;-61
2021/12/18 07:01:10;;;;;;;25.75;6.03;;;;;;;;;;5086692;28;20505;-61
2021/12/18 07:03:36;;;;;;;32.58;6.22;;;;;;;;;;5083345;28;20123;-61
2021/12/18 07:06:03;;;;;;;29.85;6.18;;;;;;;;;;5091452;28;20105;-64
2021/12/18 07:08:29;;;;;;;40.13;6.43;;;;;;;;;;5096596;28;20456;-62
2021/12/18 07:10:55;;;;;;;29.88;5.97;;;;;;;;;;5087809;28;20426;-61
2021/12/18 07:13:22;;;;;;;23.27;6.57;;;;;;;;;;5092128;28;20123;-61
2021/12/18 07:15:48;;;;;;;30.55;6.72;;;;;;;;;;5083534;28;20043;-61
2021/12/18 07:18:14;;;;;;;26.23;6.30;;;;;;;;;;5086684;28;20056;-60
2021/12/18 07:20:40;;;;;;;29.40;6.93;;;;;;;;;;5084216;28;20110;-61
2021/12/18 07:23:06;;;;;;;25.40;6.35;;;;;;;;;;5090902;28;20044;-61
2021/12/18 07:25:32;;;;;;;22.60;5.80;;;;;;;;;;5088310;28;20126;-62
2021/12/18 07:27:58;;;;;;;20.60;6.03;;;;;;;;;;5089642;28;20051;-61
2021/12/18 07:30:25;;;;;;;28.35;6.18;;;;;;;;;;5082673;28;20048;-61
2021/12/18 07:32:51;;;;;;;22.40;6.55;;;;;;;;;;5082061;28;20400;-61
2021/12/18 07:35:17;;;;;;;16.95;5.63;;;;;;;;;;5084234;28;20063;-61
2021/12/18 07:37:43;;;;;;;23.55;5.75;;;;;;;;;;5086903;28;20081;-61
2021/12/18 07:40:10;;;;;;;22.08;5.97;;;;;;;;;;5085637;28;20051;-61
2021/12/18 07:42:36;;;;;;;20.75;6.10;;;;;;;;;;5088302;28;20044;-61
2021/12/18 07:45:04;;;;;;;26.60;5.93;;;;;;;;;;5085047;28;20808;-61
2021/12/18 07:47:30;;;;;;;22.13;5.00;;;;;;;;;;5084093;28;20098;-61
2021/12/18 07:49:56;;;;;;;18.63;5.07;;;;;;;;;;5082764;28;20127;-61
2021/12/18 07:52:22;;;;;;;15.60;5.47;;;;;;;;;;5080707;28;20117;-61
2021/12/18 07:54:48;;;;;;;13.20;4.93;;;;;;;;;;5080486;28;20081;-62
2021/12/18 07:57:14;;;;;;;12.38;5.13;;;;;;;;;;5082444;28;20054;-62
2021/12/18 07:59:41;;;;;;;22.23;5.65;;;;;;;;;;5082168;28;20040;-62
2021/12/18 08:02:07;;;;;;;12.48;4.82;;;;;;;;;;5080728;28;20044;-61
2021/12/18 08:04:34;;;;;;;18.17;5.10;;;;;;;;;;5088569;28;20415;-63
2021/12/18 08:07:01;;;;;;;16.33;4.80;;;;;;;;;;5083287;28;20152;-62
2021/12/18 08:09:27;;;;;;;17.10;4.85;;;;;;;;;;5083298;28;20039;-62
2021/12/18 08:11:53;;;;;;;14.10;5.07;;;;;;;;;;5084005;28;20487;-62
2021/12/18 08:14:19;;;;;;;13.07;4.60;;;;;;;;;;5084648;28;20520;-62
2021/12/18 08:16:47;;;;;;;14.85;4.75;;;;;;;;;;5085459;28;20584;-62
2021/12/18 08:19:14;;;;;;;22.40;4.82;;;;;;;;;;5085841;28;20044;-62
2021/12/18 08:21:40;;;;;;;13.93;5.43;;;;;;;;;;5060812;28;20074;-61
2021/12/18 08:24:06;;;;;;;13.57;5.15;;;;;;;;;;5090169;28;20055;-62
2021/12/18 08:26:32;;;;;;;19.60;5.53;;;;;;;;;;5091919;28;20052;-61
2021/12/18 08:28:59;;;;;;;16.13;5.93;;;;;;;;;;5091280;28;20043;-61
2021/12/18 08:31:25;;;;;;;19.85;6.30;;;;;;;;;;5091789;28;20044;-62
2021/12/18 08:33:51;;;;;;;18.38;6.13;;;;;;;;;;5092015;28;20044;-62
2021/12/18 08:36:17;;;;;;;21.65;6.30;;;;;;;;;;5091263;28;20050;-61
2021/12/18 08:38:43;;;;;;;21.65;6.20;;;;;;;;;;5092159;28;20499;-62
2021/12/18 08:41:11;;;;;;;22.83;6.70;;;;;;;;;;5089020;28;20123;-61
2021/12/18 08:43:37;;;;;;;24.27;7.65;;;;;;;;;;5083704;28;20044;-62
2021/12/18 08:46:03;;;;;;;15.30;7.07;;;;;;;;;;5081374;28;20047;-62
2021/12/18 08:48:29;;;;;;;22.85;7.07;;;;;;;;;;5077902;28;20483;-62
2021/12/18 08:50:55;;;;;;;26.10;7.70;;;;;;;;;;5078805;28;20490;-62
2021/12/18 08:53:21;;;;;;;25.45;7.55;;;;;;;;;;5080393;28;20495;-62
2021/12/18 08:55:48;;;;;;;26.60;7.93;;;;;;;;;;5082836;28;20383;-62
2021/12/18 08:58:14;;;;;;;27.17;8.38;;;;;;;;;;5087298;28;20466;-62
2021/12/18 09:00:40;;;;;;;19.67;7.75;;;;;;;;;;5083687;28;20044;-62
2021/12/18 09:03:06;;;;;;;24.75;7.55;;;;;;;;;;5082816;28;20036;-62
2021/12/18 09:05:32;;;;;;;28.33;8.02;;;;;;;;;;5080400;28;20055;-61
2021/12/18 09:07:59;;;;;;;17.90;7.03;;;;;;;;;;5087528;28;20165;-62
2021/12/18 09:10:25;;;;;;;22.52;6.80;;;;;;;;;;5074461;28;20076;-61
2021/12/18 09:12:52;;;;;;;20.60;6.88;;;;;;;;;;5085427;28;20052;-62
2021/12/18 09:15:18;;;;;;;15.63;4.78;;;;;;;;;;5095154;28;20043;-62
2021/12/18 09:17:44;;;;;;;10.93;3.53;;;;;;;;;;5094708;28;20044;-61
2021/12/18 09:20:11;;;;;;;8.43;2.72;;;;;;;;;;5095871;28;20043;-61
2021/12/18 09:22:37;;;;;;;9.35;2.78;;;;;;;;;;5095516;28;20339;-62
2021/12/18 09:25:05;;;;;;;8.82;2.35;;;;;;;;;;5083686;28;20044;-62
2021/12/18 09:27:32;;;;;;;6.43;2.05;;;;;;;;;;5074729;28;20468;-62
2021/12/18 09:29:58;;;;;;;7.25;2.88;;;;;;;;;;5075058;28;20072;-62
2021/12/18 09:32:25;;;;;;;10.43;4.03;;;;;;;;;;5073988;28;20436;-62
2021/12/18 09:34:51;;;;;;;7.90;3.95;;;;;;;;;;5074887;28;20037;-62
2021/12/18 09:37:17;;;;;;;14.77;4.70;;;;;;;;;;5074349;28;20047;-62
2021/12/18 09:39:44;;;;;;;12.77;5.40;;;;;;;;;;5072963;28;20079;-62
2021/12/18 09:42:10;;;;;;;18.65;5.63;;;;;;;;;;5074563;28;20361;-62
2021/12/18 09:44:36;;;;;;;18.73;5.75;;;;;;;;;;5073640;28;20052;-62
2021/12/18 09:47:03;;;;;;;11.77;5.40;;;;;;;;;;5073165;28;20419;-62
2021/12/18 09:49:30;;;;;;;11.93;5.45;;;;;;;;;;5074433;28;20076;-61
2021/12/18 09:51:56;;;;;;;14.93;4.32;;;;;;;;;;5073523;28;20099;-62
2021/12/18 09:54:23;;;;;;;9.68;4.07;;;;;;;;;;5074304;28;20045;-62
2021/12/18 09:56:50;;;;;;;12.88;4.30;;;;;;;;;;5074011;28;20067;-62
2021/12/18 09:59:16;;;;;;;12.43;3.80;;;;;;;;;;5073610;28;20092;-62
2021/12/18 10:01:42;;;;;;;12.18;4.78;;;;;;;;;;5085856;28;20048;-61
2021/12/18 10:04:23;;;;;;;11.70;3.50;;;;;;;;;;5093148;28;20111;-62
2021/12/18 10:06:49;;;;;;;10.20;3.60;;;;;;;;;;5091478;28;20128;-62
2021/12/18 10:09:19;;;;;;;12.02;4.47;;;;;;;;;;5092808;28;20526;-62
2021/12/18 10:11:49;;;;;;;15.13;4.80;;;;;;;;;;5094145;28;20044;-62
2021/12/18 10:14:16;;;;;;;8.63;3.70;;;;;;;;;;5093666;28;20134;-62
2021/12/18 10:16:43;;;;;;;13.95;4.68;;;;;;;;;;5094381;28;20053;-62
2021/12/18 10:19:22;;;;;;;9.30;3.75;;;;;;;;;;5087659;28;20071;-61
2021/12/18 10:21:56;;;;;;;7.10;3.22;;;;;;;;;;5081972;28;20088;-62
2021/12/18 10:24:22;;;;;;;;;;;;;;;;;;5094686;28;20044;-61
2021/12/18 10:26:49;;;;;;;12.63;4.40;;;;;;;;;;5077282;28;20385;-62
2021/12/18 10:29:28;;;;;;;13.77;4.95;;;;;;;;;;5073773;28;20321;-61
2021/12/18 10:31:54;;;;;;;14.98;4.97;;;;;;;;;;5073716;28;20052;-62
2021/12/18 10:34:22;;;;;;;12.93;4.75;;;;;;;;;;5072796;28;20120;-62
2021/12/18 10:37:06;;;;;;;13.68;4.22;;;;;;;;;;5074117;28;20080;-61
2021/12/18 10:39:33;;;;;;;14.90;4.97;;;;;;;;;;5073699;28;20090;-62
2021/12/18 10:42:14;;;;;;;16.67;4.50;;;;;;;;;;5071416;28;20087;-61
2021/12/18 10:44:54;;;;;;;13.32;4.72;;;;;;;;;;5071897;28;20048;-62
2021/12/18 10:47:21;;;;;;;14.43;5.03;;;;;;;;;;5074097;28;20049;-62
2021/12/18 10:49:47;;;;;;;15.82;4.47;;;;;;;;;;5082062;28;20098;-62
2021/12/18 10:52:13;;;;;;;18.50;5.30;;;;;;;;;;5075765;28;20048;-62
2021/12/18 10:54:39;;;;;;;17.90;5.32;;;;;;;;;;5076627;28;20485;-62
2021/12/18 10:57:18;;;;;;;13.65;5.90;;;;;;;;;;5080876;28;20078;-61
2021/12/18 10:59:46;;;;;;;11.95;5.35;;;;;;;;;;5079177;28;20052;-62
2021/12/18 11:02:14;;;;;;;17.88;5.95;;;;;;;;;;5073312;28;20032;-62
2021/12/18 11:04:41;;;;;;;16.92;5.53;;;;;;;;;;5085059;28;20041;-62
2021/12/18 11:07:22;;;;;;;15.48;4.70;;;;;;;;;;5075666;28;20083;-61
2021/12/18 11:10:11;;;;;;;18.60;4.82;;;;;;;;;;5087126;28;20114;-62
2021/12/18 11:15:21;;;;;;;12.65;4.40;;;;;;;;;;5082058;28;20083;-61
2021/12/18 11:17:47;;;;;;;11.38;4.57;;;;;;;;;;5083823;28;20436;-61
2021/12/18 11:20:14;;;;;;;15.18;4.75;;;;;;;;;;5077372;28;20036;-61
2021/12/18 11:22:41;;;;;;;11.80;4.45;;;;;;;;;;5080143;28;20083;-61
2021/12/18 11:25:10;;;;;;;18.60;4.50;;;;;;;;;;5076987;28;20056;-63
2021/12/18 11:27:36;;;;;;;19.48;5.28;;;;;;;;;;5084825;28;20032;-61
2021/12/18 11:30:06;;;;;;;14.13;4.40;;;;;;;;;;5081390;28;20044;-62
2021/12/18 11:32:34;;;;;;;9.93;3.83;;;;;;;;;;5097366;27;20053;-61
2021/12/18 11:35:03;;;;;;;17.17;4.25;;;;;;;;;;5075093;28;20037;-62
2021/12/18 11:37:34;;;;;;;11.18;4.30;;;;;;;;;;5079918;28;20052;-61
2021/12/18 11:40:04;;;;;;;14.20;4.32;;;;;;;;;;5076512;28;20115;-61
2021/12/18 11:42:31;;;;;;;18.27;4.30;;;;;;;;;;5073499;28;20069;-61
2021/12/18 11:44:59;;;;;;;17.20;3.42;;;;;;;;;;5079191;28;20044;-62
2021/12/18 11:47:33;;;;;;;17.75;4.18;;;;;;;;;;5084997;28;20091;-62
2021/12/18 11:50:01;;;;;;;13.35;4.38;;;;;;;;;;5083377;28;20036;-62
2021/12/18 11:52:28;;;;;;;10.75;3.38;;;;;;;;;;5084118;28;20143;-62
2021/12/18 11:54:57;;;;;;;7.57;3.50;;;;;;;;;;5077396;28;20044;-62
2021/12/18 11:57:41;;;;;;;11.93;3.35;;;;;;;;;;5090101;28;20044;-62
2021/12/18 12:00:09;;;;;;;10.65;3.17;;;;;;;;;;5091384;28;20475;-61
2021/12/18 12:02:42;;;;;;;12.85;3.25;;;;;;;;;;5093804;28;20122;-62
2021/12/18 12:05:09;;;;;;;10.50;3.40;;;;;;;;;;5087660;28;20393;-61
2021/12/18 12:07:37;;;;;;;15.88;3.63;;;;;;;;;;5089288;28;20039;-62
2021/12/18 12:10:10;;;;;;;10.55;4.13;;;;;;;;;;5094077;28;20040;-62
2021/12/18 12:12:58;;;;;;;15.15;4.15;;;;;;;;;;5085734;28;20051;-65
2021/12/18 12:15:26;;;;;;;11.93;4.57;;;;;;;;;;5105541;28;20044;-61
2021/12/18 12:18:02;;;;;;;15.88;4.85;;;;;;;;;;5094750;28;20471;-63
2021/12/18 12:20:33;;;;;;;12.52;3.97;;;;;;;;;;5084754;28;20470;-63
2021/12/18 12:23:02;;;;;;;11.15;4.32;;;;;;;;;;5086895;28;20039;-63
2021/12/18 12:25:33;;;;;;;11.20;3.13;;;;;;;;;;5096286;28;20445;-62
2021/12/18 12:28:01;;;;;;;9.40;3.10;;;;;;;;;;5098983;28;20041;-62
2021/12/18 12:30:37;;;;;;;6.93;2.20;;;;;;;;;;5088895;28;20036;-62
2021/12/18 12:33:05;;;;;;;8.48;2.70;;;;;;;;;;5091206;28;20044;-62
2021/12/18 12:35:31;;;;;;;7.90;2.85;;;;;;;;;;5090381;28;20064;-63
2021/12/18 12:37:57;;;;;;;12.65;3.85;;;;;;;;;;5084073;28;20055;-63
2021/12/18 12:40:33;;;;;;;14.90;3.70;;;;;;;;;;5085325;28;20044;-63
2021/12/18 12:43:13;;;;;;;12.00;4.68;;;;;;;;;;5088790;28;20040;-63
2021/12/18 12:45:41;;;;;;;14.13;3.70;;;;;;;;;;5090161;28;20059;-63
2021/12/18 12:48:08;;;;;;;12.32;3.85;;;;;;;;;;5088765;28;20464;-65
2021/12/18 12:50:34;;;;;;;14.73;4.35;;;;;;;;;;5087594;28;20040;-63
2021/12/18 12:53:01;;;;;;;14.52;4.15;;;;;;;;;;5078492;28;20051;-63
2021/12/18 12:55:31;;;;;;;12.40;4.32;;;;;;;;;;5086645;28;20089;-63
2021/12/18 12:57:58;;;;;;;11.60;3.47;;;;;;;;;;5082344;28;20200;-73
2021/12/18 13:00:24;;;;;;;8.23;3.03;;;;;;;;;;5082655;28;20043;-64
2021/12/18 13:02:51;;;;;;;12.35;3.15;;;;;;;;;;5084488;28;20044;-63
2021/12/18 13:05:18;;;;;;;14.40;4.40;;;;;;;;;;5091508;28;20048;-63
2021/12/18 13:07:47;;;;;;;13.52;3.78;;;;;;;;;;5085933;28;20055;-63
2021/12/18 13:10:20;;;;;;;13.70;3.85;;;;;;;;;;5085948;28;20036;-63
2021/12/18 13:12:52;;;;;;;8.07;4.25;;;;;;;;;;5087031;28;20047;-64
2021/12/18 13:15:18;;;;;;;11.90;3.25;;;;;;;;;;5084349;28;20047;-64
2021/12/18 13:17:45;;;;;;;10.80;3.60;;;;;;;;;;5077265;28;20028;-63
2021/12/18 13:20:11;;;;;;;8.98;3.92;;;;;;;;;;5083544;28;20173;-64
2021/12/18 13:22:37;;;;;;;16.20;4.82;;;;;;;;;;5084887;28;20467;-63
2021/12/18 13:25:04;;;;;;;14.00;4.10;;;;;;;;;;5091965;28;20391;-64
2021/12/18 13:27:31;;;;;;;8.88;3.50;;;;;;;;;;5085468;28;20506;-63
2021/12/18 13:30:15;;;;;;;12.35;3.70;;;;;;;;;;5078819;28;20506;-63
2021/12/18 13:32:41;;;;;;;;;;;;;;;;;;5083986;28;20492;-64
2021/12/18 13:35:15;;;;;;;11.05;3.35;;;;;;;;;;5099152;27;20006;-63
2021/12/18 13:37:41;;;;;;;9.13;3.70;;;;;;;;;;5080031;28;20122;-63
2021/12/18 13:40:14;;;;;;;12.10;3.42;;;;;;;;;;5083520;28;20029;-64
2021/12/18 13:42:40;;;;;;;6.33;3.23;;;;;;;;;;5086180;28;20168;-63
2021/12/18 13:45:07;;;;;;;13.18;3.60;;;;;;;;;;5088556;28;20044;-63
2021/12/18 13:47:33;;;;;;;9.98;3.75;;;;;;;;;;5092674;28;20044;-71
2021/12/18 13:50:00;;;;;;;9.40;3.53;;;;;;;;;;5081992;28;20031;-62
2021/12/18 13:52:34;;;;;;;10.95;2.95;;;;;;;;;;5081704;28;20380;-62
2021/12/18 13:55:01;;;;;;;7.95;2.90;;;;;;;;;;5073766;28;20051;-62
2021/12/18 13:57:27;;;;;;;9.25;2.72;;;;;;;;;;5078544;28;20115;-62
2021/12/18 14:00:00;;;;;;;9.23;2.10;;;;;;;;;;5081998;28;20047;-63
2021/12/18 14:02:26;;;;;;;7.05;1.90;;;;;;;;;;5082762;28;20040;-62
2021/12/18 14:04:53;;;;;;;8.35;2.53;;;;;;;;;;5080172;28;20480;-62
2021/12/18 14:07:21;;;;;;;10.07;2.70;;;;;;;;;;5073252;28;20139;-62
2021/12/18 14:09:49;;;;;;;9.98;3.05;;;;;;;;;;5080453;28;20098;-62
2021/12/18 14:12:21;;;;;;;14.85;3.80;;;;;;;;;;5092294;28;20045;-62
2021/12/18 14:14:49;;;;;;;9.95;3.53;;;;;;;;;;5077554;28;20051;-62
2021/12/18 14:17:17;;;;;;;8.90;3.95;;;;;;;;;;5077110;28;20037;-62
2021/12/18 14:19:46;;;;;;;12.77;3.92;;;;;;;;;;5081227;28;20612;-62
2021/12/18 14:22:12;;;;;;;12.50;4.40;;;;;;;;;;5072987;28;20082;-62
2021/12/18 14:24:40;;;;;;;19.58;5.68;;;;;;;;;;5080512;28;20044;-63
2021/12/18 14:27:08;;;;;;;15.90;5.68;;;;;;;;;;5079329;28;20044;-62
2021/12/18 14:29:36;;;;;;;13.68;5.10;;;;;;;;;;5078964;28;20086;-62
2021/12/18 14:32:05;;;;;;;15.00;6.60;;;;;;;;;;5080632;28;20048;-63
2021/12/18 14:34:32;;;;;;;14.95;6.43;;;;;;;;;;5082407;28;20085;-63
2021/12/18 14:37:04;;;;;;;14.98;5.90;;;;;;;;;;5083727;28;20068;-63
2021/12/18 14:39:39;;;;;;;19.75;5.65;;;;;;;;;;5077181;28;20044;-62
2021/12/18 14:42:10;;;;;;;9.32;3.83;;;;;;;;;;5080335;28;20040;-63
2021/12/18 14:44:42;;;;;;;8.65;3.25;;;;;;;;;;5076226;28;20079;-63
2021/12/18 14:47:11;;;;;;;9.55;4.38;;;;;;;;;;5081808;28;20041;-62
2021/12/18 14:49:37;;;;;;;9.52;3.90;;;;;;;;;;5081649;28;20048;-62
2021/12/18 14:52:04;;;;;;;16.83;5.25;;;;;;;;;;5081282;28;20044;-62
2021/12/18 14:54:45;;;;;;;10.25;4.68;;;;;;;;;;5076999;28;20047;-62
2021/12/18 14:57:19;;;;;;;14.27;5.40;;;;;;;;;;5103933;27;20036;-63
2021/12/18 14:59:45;;;;;;;;;;;;;;;;;;5084252;28;20047;-63
2021/12/18 15:02:12;;;;;;;11.27;4.53;;;;;;;;;;5077231;28;19931;-62
2021/12/18 15:04:38;;;;;;;17.92;5.05;;;;;;;;;;5083690;28;20040;-63
2021/12/18 15:07:10;;;;;;;15.70;5.00;;;;;;;;;;5083690;28;20165;-62
2021/12/18 15:09:38;;;;;;;14.82;4.97;;;;;;;;;;5081581;28;20050;-63
2021/12/18 15:12:04;;;;;;;11.25;5.57;;;;;;;;;;5077535;28;20044;-62
2021/12/18 15:14:32;;;;;;;13.20;5.50;;;;;;;;;;5078068;28;20127;-62